sensor_id;sensor_type;location;lat;lon;timestamp;pressure;altitude;pressure_sealevel;temperature;humidity
41596;BME280;27283;52.504;13.358;2022-09-09T00:01:10;100666.31;;;15.36;100.00
41596;BME280;27283;52.504;13.358;2022-09-09T00:03:57;100665.22;;;15.30;100.00
41596;BME280;27283;52.504;13.358;2022-09-09T00:06:34;100662.09;;;15.33;100.00
41596;BME280;27283;52.504;13.358;2022-09-09T00:09:10;100663.13;;;15.32;100.00
41596;BME280;27283;52.504;13.358;2022-09-09T00:11:51;100671.63;;;15.22;100.00
41596;BME280;27283;52.504;13.358;2022-09-09T00:14:33;100666.41;;;15.21;100.00
41596;BME280;27283;52.504;13.358;2022-09-09T00:17:12;100659.56;;;15.25;100.00
41596;BME280;27283;52.504;13.358;2022-09-09T00:19:53;100661.19;;;15.19;100.00
41596;BME280;27283;52.504;13.358;2022-09-09T00:22:32;100660.16;;;15.20;100.00
41596;BME280;27283;52.504;13.358;2022-09-09T00:25:11;100661.19;;;15.19;100.00
41596;BME280;27283;52.504;13.358;2022-09-09T00:27:47;100656.22;;;15.23;100.00
41596;BME280;27283;52.504;13.358;2022-09-09T00:30:22;100657.00;;;15.17;100.00
41596;BME280;27283;52.504;13.358;2022-09-09T00:32:57;100650.59;;;15.24;100.00
41596;BME280;27283;52.504;13.358;2022-09-09T00:35:35;100647.66;;;15.19;100.00
41596;BME280;27283;52.504;13.358;2022-09-09T00:38:14;100646.44;;;15.22;100.00
41596;BME280;27283;52.504;13.358;2022-09-09T00:40:50;100645.56;;;15.21;100.00
41596;BME280;27283;52.504;13.358;2022-09-09T00:43:27;100650.38;;;15.19;100.00
41596;BME280;27283;52.504;13.358;2022-09-09T00:46:27;100645.53;;;15.15;100.00
41596;BME280;27283;52.504;13.358;2022-09-09T00:49:27;100649.47;;;15.12;100.00
41596;BME280;27283;52.504;13.358;2022-09-09T00:52:22;100650.50;;;15.11;100.00
41596;BME280;27283;52.504;13.358;2022-09-09T00:55:03;100648.00;;;15.10;100.00
41596;BME280;27283;52.504;13.358;2022-09-09T00:57:38;100655.50;;;15.07;100.00
41596;BME280;27283;52.504;13.358;2022-09-09T01:00:22;100648.97;;;15.02;100.00
41596;BME280;27283;52.504;13.358;2022-09-09T01:03:11;100653.56;;;15.01;100.00
41596;BME280;27283;52.504;13.358;2022-09-09T01:05:49;100651.06;;;15.00;100.00
41596;BME280;27283;52.504;13.358;2022-09-09T01:11:25;100661.69;;;15.01;100.00
41596;BME280;27283;52.504;13.358;2022-09-09T01:14:05;100668.09;;;14.94;100.00
41596;BME280;27283;52.504;13.358;2022-09-09T01:16:42;100660.59;;;14.96;100.00
41596;BME280;27283;52.504;13.358;2022-09-09T01:19:22;100656.72;;;15.05;100.00
41596;BME280;27283;52.504;13.358;2022-09-09T01:22:03;100656.31;;;15.08;100.00
41596;BME280;27283;52.504;13.358;2022-09-09T01:25:09;100661.09;;;15.06;100.00
41596;BME280;27283;52.504;13.358;2022-09-09T01:27:49;100659.88;;;15.09;100.00
41596;BME280;27283;52.504;13.358;2022-09-09T01:30:23;100655.97;;;14.89;100.00
41596;BME280;27283;52.504;13.358;2022-09-09T01:32:57;100650.63;;;14.96;100.00
41596;BME280;27283;52.504;13.358;2022-09-09T01:35:41;100652.09;;;14.99;100.00
41596;BME280;27283;52.504;13.358;2022-09-09T01:38:36;100652.47;;;14.96;100.00
41596;BME280;27283;52.504;13.358;2022-09-09T01:41:08;100656.44;;;14.93;100.00
41596;BME280;27283;52.504;13.358;2022-09-09T01:43:43;100649.75;;;14.89;100.00
41596;BME280;27283;52.504;13.358;2022-09-09T01:46:17;100658.47;;;14.84;100.00
41596;BME280;27283;52.504;13.358;2022-09-09T01:48:51;100655.09;;;14.82;100.00
41596;BME280;27283;52.504;13.358;2022-09-09T01:51:25;100657.31;;;14.72;100.00
41596;BME280;27283;52.504;13.358;2022-09-09T01:53:57;100653.16;;;14.76;100.00
41596;BME280;27283;52.504;13.358;2022-09-09T01:56:37;100651.31;;;14.77;100.00
41596;BME280;27283;52.504;13.358;2022-09-09T01:59:27;100647.75;;;14.76;100.00
41596;BME280;27283;52.504;13.358;2022-09-09T02:02:09;100653.75;;;14.71;100.00
41596;BME280;27283;52.504;13.358;2022-09-09T02:04:43;100652.31;;;14.69;100.00
41596;BME280;27283;52.504;13.358;2022-09-09T02:07:27;100653.94;;;14.70;100.00
41596;BME280;27283;52.504;13.358;2022-09-09T02:10:27;100660.22;;;14.70;100.00
41596;BME280;27283;52.504;13.358;2022-09-09T02:13:07;100662.03;;;14.63;100.00
41596;BME280;27283;52.504;13.358;2022-09-09T02:15:49;100662.78;;;14.57;100.00
41596;BME280;27283;52.504;13.358;2022-09-09T02:18:29;100672.19;;;14.61;100.00
41596;BME280;27283;52.504;13.358;2022-09-09T02:21:03;100671.47;;;14.52;100.00
41596;BME280;27283;52.504;13.358;2022-09-09T02:23:36;100674.22;;;14.59;100.00
41596;BME280;27283;52.504;13.358;2022-09-09T02:26:10;100667.81;;;14.60;100.00
41596;BME280;27283;52.504;13.358;2022-09-09T02:28:50;100667.53;;;14.55;100.00
41596;BME280;27283;52.504;13.358;2022-09-09T02:31:25;100672.56;;;14.58;100.00
41596;BME280;27283;52.504;13.358;2022-09-09T02:33:59;100664.81;;;14.55;100.00
41596;BME280;27283;52.504;13.358;2022-09-09T02:36:34;100666.78;;;14.61;100.00
41596;BME280;27283;52.504;13.358;2022-09-09T02:39:09;100654.78;;;14.49;100.00
41596;BME280;27283;52.504;13.358;2022-09-09T02:41:42;100662.91;;;14.49;100.00
41596;BME280;27283;52.504;13.358;2022-09-09T02:44:16;100663.81;;;14.56;100.00
41596;BME280;27283;52.504;13.358;2022-09-09T02:47:09;100660.69;;;14.59;100.00
41596;BME280;27283;52.504;13.358;2022-09-09T02:49:55;100658.78;;;14.53;100.00
41596;BME280;27283;52.504;13.358;2022-09-09T02:52:38;100664.81;;;14.55;100.00
41596;BME280;27283;52.504;13.358;2022-09-09T02:55:18;100664.06;;;14.61;100.00
41596;BME280;27283;52.504;13.358;2022-09-09T02:57:54;100665.69;;;14.56;100.00
41596;BME280;27283;52.504;13.358;2022-09-09T03:00:27;100659.59;;;14.53;100.00
41596;BME280;27283;52.504;13.358;2022-09-09T03:03:02;100656.34;;;14.36;100.00
41596;BME280;27283;52.504;13.358;2022-09-09T03:05:34;100666.97;;;14.38;100.00
41596;BME280;27283;52.504;13.358;2022-09-09T03:08:06;100665.75;;;14.41;100.00
41596;BME280;27283;52.504;13.358;2022-09-09T03:10:38;100674.09;;;14.46;100.00
41596;BME280;27283;52.504;13.358;2022-09-09T03:13:10;100671.06;;;14.34;100.00
41596;BME280;27283;52.504;13.358;2022-09-09T03:15:44;100672.19;;;14.40;100.00
41596;BME280;27283;52.504;13.358;2022-09-09T03:18:18;100677.06;;;14.29;100.00
41596;BME280;27283;52.504;13.358;2022-09-09T03:20:50;100684.00;;;14.39;100.00
41596;BME280;27283;52.504;13.358;2022-09-09T03:23:22;100686.28;;;14.35;100.00
41596;BME280;27283;52.504;13.358;2022-09-09T03:25:54;100691.75;;;14.42;100.00
41596;BME280;27283;52.504;13.358;2022-09-09T03:28:27;100686.13;;;14.22;100.00
41596;BME280;27283;52.504;13.358;2022-09-09T03:31:00;100691.34;;;14.23;100.00
41596;BME280;27283;52.504;13.358;2022-09-09T03:33:34;100690.59;;;14.29;100.00
41596;BME280;27283;52.504;13.358;2022-09-09T03:36:06;100692.66;;;14.27;100.00
41596;BME280;27283;52.504;13.358;2022-09-09T03:38:37;100686.47;;;14.33;100.00
41596;BME280;27283;52.504;13.358;2022-09-09T03:41:09;100678.31;;;14.27;100.00
41596;BME280;27283;52.504;13.358;2022-09-09T03:43:40;100688.25;;;14.26;100.00
41596;BME280;27283;52.504;13.358;2022-09-09T03:46:13;100685.56;;;14.26;100.00
41596;BME280;27283;52.504;13.358;2022-09-09T03:48:50;100688.41;;;14.18;100.00
41596;BME280;27283;52.504;13.358;2022-09-09T03:51:22;100698.00;;;14.21;100.00
41596;BME280;27283;52.504;13.358;2022-09-09T03:53:56;100694.63;;;14.18;100.00
41596;BME280;27283;52.504;13.358;2022-09-09T03:56:29;100700.22;;;14.17;100.00
41596;BME280;27283;52.504;13.358;2022-09-09T03:59:03;100698.53;;;14.16;100.00
41596;BME280;27283;52.504;13.358;2022-09-09T04:01:38;100692.59;;;14.21;100.00
41596;BME280;27283;52.504;13.358;2022-09-09T04:04:15;100687.72;;;14.16;100.00
41596;BME280;27283;52.504;13.358;2022-09-09T04:06:48;100686.47;;;14.12;100.00
41596;BME280;27283;52.504;13.358;2022-09-09T04:09:24;100679.16;;;14.12;100.00
41596;BME280;27283;52.504;13.358;2022-09-09T04:11:56;100680.50;;;14.02;100.00
41596;BME280;27283;52.504;13.358;2022-09-09T04:14:28;100680.75;;;14.07;100.00
41596;BME280;27283;52.504;13.358;2022-09-09T04:17:00;100688.69;;;14.08;100.00
41596;BME280;27283;52.504;13.358;2022-09-09T04:19:37;100683.66;;;14.05;100.00
41596;BME280;27283;52.504;13.358;2022-09-09T04:22:09;100683.47;;;14.07;100.00
41596;BME280;27283;52.504;13.358;2022-09-09T04:24:42;100685.16;;;14.08;100.00
41596;BME280;27283;52.504;13.358;2022-09-09T06:38:18;100766.25;;;15.87;97.63
41596;BME280;27283;52.504;13.358;2022-09-09T06:40:52;100765.25;;;15.95;98.97
41596;BME280;27283;52.504;13.358;2022-09-09T06:43:27;100763.44;;;16.09;97.52
41596;BME280;27283;52.504;13.358;2022-09-09T06:46:01;100759.50;;;16.11;98.11
41596;BME280;27283;52.504;13.358;2022-09-09T06:48:34;100762.44;;;16.17;96.38
41596;BME280;27283;52.504;13.358;2022-09-09T06:51:08;100768.31;;;16.27;96.81
41596;BME280;27283;52.504;13.358;2022-09-09T06:53:45;100770.00;;;16.35;99.04
41596;BME280;27283;52.504;13.358;2022-09-09T06:56:21;100757.41;;;16.82;100.00
41596;BME280;27283;52.504;13.358;2022-09-09T06:58:55;100755.88;;;17.80;91.18
41596;BME280;27283;52.504;13.358;2022-09-09T07:01:30;100750.31;;;18.20;91.04
41596;BME280;27283;52.504;13.358;2022-09-09T07:04:03;100745.91;;;19.21;86.42
41596;BME280;27283;52.504;13.358;2022-09-09T07:06:39;100750.41;;;19.78;83.21
41596;BME280;27283;52.504;13.358;2022-09-09T07:09:15;100756.72;;;20.27;79.05
41596;BME280;27283;52.504;13.358;2022-09-09T07:12:17;100761.06;;;20.16;81.18
41596;BME280;27283;52.504;13.358;2022-09-09T07:18:51;100760.38;;;20.21;78.33
41596;BME280;27283;52.504;13.358;2022-09-09T07:22:05;100759.06;;;20.42;73.15
41596;BME280;27283;52.504;13.358;2022-09-09T07:26:06;100756.09;;;20.44;73.65
41596;BME280;27283;52.504;13.358;2022-09-09T07:29:23;100758.19;;;21.02;67.64
41596;BME280;27283;52.504;13.358;2022-09-09T07:32:16;100763.31;;;20.99;67.03
41596;BME280;27283;52.504;13.358;2022-09-09T07:35:29;100761.19;;;20.40;71.53
41596;BME280;27283;52.504;13.358;2022-09-09T07:41:10;100763.69;;;20.42;72.96
41596;BME280;27283;52.504;13.358;2022-09-09T07:43:53;100770.50;;;20.81;70.52
41596;BME280;27283;52.504;13.358;2022-09-09T07:46:32;100762.44;;;20.86;72.73
41596;BME280;27283;52.504;13.358;2022-09-09T07:49:11;100777.22;;;21.09;71.26
41596;BME280;27283;52.504;13.358;2022-09-09T07:52:37;100770.94;;;21.32;67.99
41596;BME280;27283;52.504;13.358;2022-09-09T07:55:27;100773.31;;;21.29;74.33
41596;BME280;27283;52.504;13.358;2022-09-09T07:58:02;100773.81;;;21.61;68.22
41596;BME280;27283;52.504;13.358;2022-09-09T08:00:34;100776.06;;;21.40;68.05
41596;BME280;27283;52.504;13.358;2022-09-09T08:04:00;100766.53;;;21.43;65.92
41596;BME280;27283;52.504;13.358;2022-09-09T08:06:36;100769.63;;;21.47;70.99
41596;BME280;27283;52.504;13.358;2022-09-09T08:09:33;100774.13;;;21.17;72.86
41596;BME280;27283;52.504;13.358;2022-09-09T08:12:06;100776.91;;;21.53;69.61
41596;BME280;27283;52.504;13.358;2022-09-09T08:18:53;100783.91;;;21.25;68.43
41596;BME280;27283;52.504;13.358;2022-09-09T08:21:27;100797.69;;;21.18;71.09
41596;BME280;27283;52.504;13.358;2022-09-09T08:24:02;100794.06;;;21.06;73.74
41596;BME280;27283;52.504;13.358;2022-09-09T08:26:35;100787.75;;;20.94;68.67
41596;BME280;27283;52.504;13.358;2022-09-09T08:29:23;100791.00;;;21.02;69.30
41596;BME280;27283;52.504;13.358;2022-09-09T08:31:58;100780.81;;;20.67;76.13
41596;BME280;27283;52.504;13.358;2022-09-09T08:35:06;100780.03;;;20.91;76.57
41596;BME280;27283;52.504;13.358;2022-09-09T08:38:17;100785.19;;;21.11;73.60
41596;BME280;27283;52.504;13.358;2022-09-09T08:41:51;100782.38;;;21.88;65.69
41596;BME280;27283;52.504;13.358;2022-09-09T08:45:03;100783.16;;;22.01;61.73
41596;BME280;27283;52.504;13.358;2022-09-09T08:48:29;100800.44;;;21.42;66.81
41596;BME280;27283;52.504;13.358;2022-09-09T08:51:36;100795.09;;;21.35;65.44
41596;BME280;27283;52.504;13.358;2022-09-09T08:54:34;100796.00;;;21.05;66.81
41596;BME280;27283;52.504;13.358;2022-09-09T08:57:28;100798.06;;;21.34;64.58
41596;BME280;27283;52.504;13.358;2022-09-09T09:00:03;100787.31;;;21.09;64.50
41596;BME280;27283;52.504;13.358;2022-09-09T09:03:28;100804.38;;;21.46;63.04
41596;BME280;27283;52.504;13.358;2022-09-09T09:07:21;100806.59;;;21.14;64.88
41596;BME280;27283;52.504;13.358;2022-09-09T09:10:18;100801.59;;;21.22;64.76
41596;BME280;27283;52.504;13.358;2022-09-09T09:13:14;100794.75;;;21.67;64.61
41596;BME280;27283;52.504;13.358;2022-09-09T09:15:53;100802.81;;;22.09;62.06
41596;BME280;27283;52.504;13.358;2022-09-09T09:19:04;100798.28;;;22.15;61.04
41596;BME280;27283;52.504;13.358;2022-09-09T09:25:09;100797.34;;;22.96;61.85
41596;BME280;27283;52.504;13.358;2022-09-09T09:27:51;100791.81;;;23.59;58.28
41596;BME280;27283;52.504;13.358;2022-09-09T09:30:28;100792.69;;;24.20;60.86
41596;BME280;27283;52.504;13.358;2022-09-09T09:33:05;100784.50;;;25.02;52.58
41596;BME280;27283;52.504;13.358;2022-09-09T09:36:03;100781.63;;;25.57;54.77
41596;BME280;27283;52.504;13.358;2022-09-09T09:39:34;100785.50;;;26.09;50.53
41596;BME280;27283;52.504;13.358;2022-09-09T09:42:47;100785.13;;;25.95;58.66
41596;BME280;27283;52.504;13.358;2022-09-09T09:45:41;100792.13;;;25.65;57.62
41596;BME280;27283;52.504;13.358;2022-09-09T09:52:12;100787.47;;;26.13;53.30
41596;BME280;27283;52.504;13.358;2022-09-09T09:55:16;100777.47;;;26.86;47.49
41596;BME280;27283;52.504;13.358;2022-09-09T09:58:18;100781.31;;;27.00;45.63
41596;BME280;27283;52.504;13.358;2022-09-09T10:01:25;100781.28;;;27.67;43.73
41596;BME280;27283;52.504;13.358;2022-09-09T10:04:00;100777.19;;;27.13;50.17
41596;BME280;27283;52.504;13.358;2022-09-09T10:06:46;100776.34;;;27.59;46.09
41596;BME280;27283;52.504;13.358;2022-09-09T10:09:24;100780.19;;;27.58;47.32
41596;BME280;27283;52.504;13.358;2022-09-09T10:12:01;100786.03;;;27.15;46.25
41596;BME280;27283;52.504;13.358;2022-09-09T10:14:48;100782.31;;;26.48;52.41
41596;BME280;27283;52.504;13.358;2022-09-09T10:17:32;100785.75;;;25.22;52.46
41596;BME280;27283;52.504;13.358;2022-09-09T10:20:29;100786.50;;;26.66;46.45
41596;BME280;27283;52.504;13.358;2022-09-09T10:23:17;100783.91;;;26.28;50.07
41596;BME280;27283;52.504;13.358;2022-09-09T10:26:07;100789.88;;;27.50;44.63
41596;BME280;27283;52.504;13.358;2022-09-09T10:28:58;100785.69;;;27.68;44.75
41596;BME280;27283;52.504;13.358;2022-09-09T10:31:44;100786.28;;;27.60;44.47
41596;BME280;27283;52.504;13.358;2022-09-09T10:34:41;100791.53;;;26.84;44.35
41596;BME280;27283;52.504;13.358;2022-09-09T10:37:27;100793.53;;;26.15;47.68
41596;BME280;27283;52.504;13.358;2022-09-09T10:40:11;100794.16;;;26.38;48.29
41596;BME280;27283;52.504;13.358;2022-09-09T10:42:47;100793.19;;;27.01;44.82
41596;BME280;27283;52.504;13.358;2022-09-09T10:45:25;100785.19;;;27.04;46.78
41596;BME280;27283;52.504;13.358;2022-09-09T10:48:30;100782.34;;;25.90;48.79
41596;BME280;27283;52.504;13.358;2022-09-09T10:51:15;100798.72;;;26.02;50.93
41596;BME280;27283;52.504;13.358;2022-09-09T10:53:56;100778.94;;;26.25;49.61
41596;BME280;27283;52.504;13.358;2022-09-09T10:56:35;100784.09;;;26.85;50.08
41596;BME280;27283;52.504;13.358;2022-09-09T10:59:13;100786.31;;;27.14;43.79
41596;BME280;27283;52.504;13.358;2022-09-09T11:01:51;100792.06;;;26.76;48.18
41596;BME280;27283;52.504;13.358;2022-09-09T11:04:31;100784.09;;;27.31;47.58
41596;BME280;27283;52.504;13.358;2022-09-09T11:07:10;100782.69;;;27.65;42.66
41596;BME280;27283;52.504;13.358;2022-09-09T11:09:49;100782.16;;;27.32;44.71
41596;BME280;27283;52.504;13.358;2022-09-09T11:12:23;100779.41;;;27.06;50.77
41596;BME280;27283;52.504;13.358;2022-09-09T11:15:01;100780.25;;;26.07;48.86
41596;BME280;27283;52.504;13.358;2022-09-09T11:17:45;100788.28;;;26.14;49.48
41596;BME280;27283;52.504;13.358;2022-09-09T11:20:39;100785.44;;;26.98;43.47
41596;BME280;27283;52.504;13.358;2022-09-09T11:23:15;100779.63;;;26.74;44.09
41596;BME280;27283;52.504;13.358;2022-09-09T11:25:52;100785.91;;;25.85;46.10
41596;BME280;27283;52.504;13.358;2022-09-09T11:28:35;100783.41;;;26.42;47.99
41596;BME280;27283;52.504;13.358;2022-09-09T11:31:27;100786.25;;;26.67;44.26
41596;BME280;27283;52.504;13.358;2022-09-09T11:34:31;100780.28;;;25.64;49.43
41596;BME280;27283;52.504;13.358;2022-09-09T11:37:21;100780.94;;;25.82;50.30
41596;BME280;27283;52.504;13.358;2022-09-09T11:40:19;100784.13;;;25.63;49.24
41596;BME280;27283;52.504;13.358;2022-09-09T11:43:09;100777.41;;;25.11;51.44
41596;BME280;27283;52.504;13.358;2022-09-09T11:45:43;100786.38;;;25.29;50.55
41596;BME280;27283;52.504;13.358;2022-09-09T11:48:33;100775.22;;;25.13;47.60
41596;BME280;27283;52.504;13.358;2022-09-09T11:51:08;100779.72;;;25.62;49.71
41596;BME280;27283;52.504;13.358;2022-09-09T11:54:04;100757.66;;;26.10;47.80
41596;BME280;27283;52.504;13.358;2022-09-09T11:56:58;100751.66;;;26.24;47.20
41596;BME280;27283;52.504;13.358;2022-09-09T11:59:35;100754.72;;;26.27;46.19
41596;BME280;27283;52.504;13.358;2022-09-09T12:02:13;100753.34;;;26.40;48.14
41596;BME280;27283;52.504;13.358;2022-09-09T12:04:57;100757.22;;;26.39;44.00
41596;BME280;27283;52.504;13.358;2022-09-09T12:07:37;100744.56;;;25.75;44.86
41596;BME280;27283;52.504;13.358;2022-09-09T12:10:27;100753.69;;;25.00;46.59
41596;BME280;27283;52.504;13.358;2022-09-09T12:13:16;100744.53;;;24.94;46.24
41596;BME280;27283;52.504;13.358;2022-09-09T12:15:51;100742.00;;;24.88;46.94
41596;BME280;27283;52.504;13.358;2022-09-09T12:18:31;100738.03;;;24.73;47.70
41596;BME280;27283;52.504;13.358;2022-09-09T12:21:13;100744.19;;;24.31;48.35
41596;BME280;27283;52.504;13.358;2022-09-09T12:23:52;100738.81;;;24.19;47.87
41596;BME280;27283;52.504;13.358;2022-09-09T12:26:53;100735.19;;;24.14;48.61
41596;BME280;27283;52.504;13.358;2022-09-09T12:29:38;100733.59;;;24.18;49.21
41596;BME280;27283;52.504;13.358;2022-09-09T12:32:17;100728.34;;;24.16;49.09
41596;BME280;27283;52.504;13.358;2022-09-09T12:34:55;100732.50;;;24.19;48.87
41596;BME280;27283;52.504;13.358;2022-09-09T12:37:32;100725.28;;;24.13;47.90
41596;BME280;27283;52.504;13.358;2022-09-09T12:40:19;100724.78;;;23.94;46.97
41596;BME280;27283;52.504;13.358;2022-09-09T12:42:55;100726.72;;;23.54;47.99
41596;BME280;27283;52.504;13.358;2022-09-09T12:45:30;100719.00;;;23.51;49.00
41596;BME280;27283;52.504;13.358;2022-09-09T12:48:17;100716.19;;;23.68;49.57
41596;BME280;27283;52.504;13.358;2022-09-09T12:50:53;100715.28;;;23.62;48.44
41596;BME280;27283;52.504;13.358;2022-09-09T12:53:29;100717.53;;;23.65;49.39
41596;BME280;27283;52.504;13.358;2022-09-09T12:56:05;100720.00;;;23.45;49.77
41596;BME280;27283;52.504;13.358;2022-09-09T12:58:45;100719.81;;;23.51;50.60
41596;BME280;27283;52.504;13.358;2022-09-09T13:01:22;100725.84;;;23.70;51.65
41596;BME280;27283;52.504;13.358;2022-09-09T13:03:55;100730.03;;;23.95;49.58
41596;BME280;27283;52.504;13.358;2022-09-09T13:06:30;100735.72;;;23.71;49.35
41596;BME280;27283;52.504;13.358;2022-09-09T13:09:03;100731.88;;;23.89;49.33
41596;BME280;27283;52.504;13.358;2022-09-09T13:11:37;100733.78;;;24.11;49.25
41596;BME280;27283;52.504;13.358;2022-09-09T13:14:19;100734.34;;;24.13;49.08
41596;BME280;27283;52.504;13.358;2022-09-09T13:16:56;100735.78;;;24.16;47.95
41596;BME280;27283;52.504;13.358;2022-09-09T13:19:32;100737.41;;;24.17;46.51
41596;BME280;27283;52.504;13.358;2022-09-09T13:22:13;100728.69;;;23.98;47.44
41596;BME280;27283;52.504;13.358;2022-09-09T13:24:45;100730.84;;;23.96;48.01
41596;BME280;27283;52.504;13.358;2022-09-09T13:27:26;100722.59;;;23.96;49.61
41596;BME280;27283;52.504;13.358;2022-09-09T13:30:24;100719.84;;;23.96;50.88
41596;BME280;27283;52.504;13.358;2022-09-09T13:33:17;100713.16;;;24.09;50.76
41596;BME280;27283;52.504;13.358;2022-09-09T13:35:57;100710.22;;;23.93;51.44
41596;BME280;27283;52.504;13.358;2022-09-09T13:38:33;100698.75;;;23.79;52.45
41596;BME280;27283;52.504;13.358;2022-09-09T13:41:09;100704.44;;;24.17;50.00
41596;BME280;27283;52.504;13.358;2022-09-09T13:43:44;100712.50;;;24.23;48.97
41596;BME280;27283;52.504;13.358;2022-09-09T13:46:32;100707.53;;;24.48;48.03
41596;BME280;27283;52.504;13.358;2022-09-09T13:49:20;100694.16;;;24.56;50.66
41596;BME280;27283;52.504;13.358;2022-09-09T13:52:04;100698.09;;;24.66;46.58
41596;BME280;27283;52.504;13.358;2022-09-09T13:54:37;100700.34;;;24.69;46.25
41596;BME280;27283;52.504;13.358;2022-09-09T13:57:16;100703.16;;;24.79;47.28
41596;BME280;27283;52.504;13.358;2022-09-09T13:59:49;100700.41;;;24.79;48.60
41596;BME280;27283;52.504;13.358;2022-09-09T14:02:35;100700.00;;;24.65;47.78
41596;BME280;27283;52.504;13.358;2022-09-09T14:05:20;100713.44;;;24.34;48.68
41596;BME280;27283;52.504;13.358;2022-09-09T14:07:53;100702.22;;;24.68;48.35
41596;BME280;27283;52.504;13.358;2022-09-09T14:10:26;100707.72;;;24.68;48.14
41596;BME280;27283;52.504;13.358;2022-09-09T14:12:58;100701.59;;;24.88;47.17
41596;BME280;27283;52.504;13.358;2022-09-09T14:15:31;100705.41;;;24.82;49.86
41596;BME280;27283;52.504;13.358;2022-09-09T14:18:05;100705.53;;;25.03;45.63
41596;BME280;27283;52.504;13.358;2022-09-09T14:20:38;100712.19;;;25.12;44.73
41596;BME280;27283;52.504;13.358;2022-09-09T14:23:11;100701.16;;;25.02;45.31
41596;BME280;27283;52.504;13.358;2022-09-09T14:25:44;100699.66;;;24.89;44.07
41596;BME280;27283;52.504;13.358;2022-09-09T14:28:17;100696.66;;;24.90;44.91
41596;BME280;27283;52.504;13.358;2022-09-09T14:31:10;100704.53;;;24.76;44.92
41596;BME280;27283;52.504;13.358;2022-09-09T14:36:52;100700.88;;;24.71;44.84
41596;BME280;27283;52.504;13.358;2022-09-09T14:39:24;100692.97;;;24.74;41.87
41596;BME280;27283;52.504;13.358;2022-09-09T14:41:56;100698.69;;;24.73;42.61
41596;BME280;27283;52.504;13.358;2022-09-09T14:44:29;100698.31;;;24.59;42.97
41596;BME280;27283;52.504;13.358;2022-09-09T14:47:02;100699.66;;;24.29;44.96
41596;BME280;27283;52.504;13.358;2022-09-09T14:49:37;100701.84;;;24.05;47.00
41596;BME280;27283;52.504;13.358;2022-09-09T14:52:17;100704.31;;;23.84;48.73
41596;BME280;27283;52.504;13.358;2022-09-09T14:54:50;100701.13;;;23.48;49.65
41596;BME280;27283;52.504;13.358;2022-09-09T14:57:22;100706.44;;;23.38;50.63
41596;BME280;27283;52.504;13.358;2022-09-09T14:59:54;100701.41;;;23.30;51.45
41596;BME280;27283;52.504;13.358;2022-09-09T15:02:27;100706.63;;;22.97;52.01
41596;BME280;27283;52.504;13.358;2022-09-09T15:05:06;100709.72;;;23.01;52.83
41596;BME280;27283;52.504;13.358;2022-09-09T15:07:42;100707.88;;;22.90;51.77
41596;BME280;27283;52.504;13.358;2022-09-09T15:10:16;100700.16;;;22.87;52.56
41596;BME280;27283;52.504;13.358;2022-09-09T15:12:50;100702.06;;;23.03;51.64
41596;BME280;27283;52.504;13.358;2022-09-09T15:15:22;100692.28;;;23.24;51.54
41596;BME280;27283;52.504;13.358;2022-09-09T15:17:56;100690.25;;;23.36;50.63
41596;BME280;27283;52.504;13.358;2022-09-09T15:20:28;100692.56;;;23.45;50.14
41596;BME280;27283;52.504;13.358;2022-09-09T15:23:10;100677.44;;;23.42;51.80
41596;BME280;27283;52.504;13.358;2022-09-09T15:25:51;100681.19;;;23.58;49.69
41596;BME280;27283;52.504;13.358;2022-09-09T15:28:24;100686.75;;;23.41;49.83
41596;BME280;27283;52.504;13.358;2022-09-09T15:30:57;100687.94;;;23.28;49.72
41596;BME280;27283;52.504;13.358;2022-09-09T15:33:30;100686.28;;;22.93;49.58
41596;BME280;27283;52.504;13.358;2022-09-09T15:36:13;100681.03;;;23.09;50.30
41596;BME280;27283;52.504;13.358;2022-09-09T15:38:48;100688.41;;;23.08;49.59
41596;BME280;27283;52.504;13.358;2022-09-09T15:41:21;100677.66;;;22.85;49.73
41596;BME280;27283;52.504;13.358;2022-09-09T15:43:54;100676.97;;;22.77;49.60
41596;BME280;27283;52.504;13.358;2022-09-09T15:46:30;100668.00;;;22.65;50.30
41596;BME280;27283;52.504;13.358;2022-09-09T15:49:06;100667.41;;;22.46;50.18
41596;BME280;27283;52.504;13.358;2022-09-09T15:54:19;100654.88;;;22.67;49.58
41596;BME280;27283;52.504;13.358;2022-09-09T15:56:53;100657.56;;;22.62;50.29
41596;BME280;27283;52.504;13.358;2022-09-09T15:59:29;100660.88;;;22.64;54.18
41596;BME280;27283;52.504;13.358;2022-09-09T16:02:02;100659.69;;;22.60;51.57
41596;BME280;27283;52.504;13.358;2022-09-09T16:04:35;100678.31;;;22.58;50.64
41596;BME280;27283;52.504;13.358;2022-09-09T16:07:06;100674.63;;;22.52;52.45
41596;BME280;27283;52.504;13.358;2022-09-09T16:09:41;100682.97;;;22.57;50.97
41596;BME280;27283;52.504;13.358;2022-09-09T16:12:13;100683.97;;;22.68;49.95
41596;BME280;27283;52.504;13.358;2022-09-09T16:14:45;100686.53;;;22.75;49.68
41596;BME280;27283;52.504;13.358;2022-09-09T16:17:17;100697.41;;;22.70;51.73
41596;BME280;27283;52.504;13.358;2022-09-09T16:19:52;100703.47;;;22.89;49.56
41596;BME280;27283;52.504;13.358;2022-09-09T16:22:26;100711.28;;;22.80;52.68
41596;BME280;27283;52.504;13.358;2022-09-09T16:25:01;100715.84;;;22.74;49.95
41596;BME280;27283;52.504;13.358;2022-09-09T16:27:32;100711.63;;;22.67;49.93
41596;BME280;27283;52.504;13.358;2022-09-09T16:33:18;100722.91;;;22.70;50.01